sensor_id;sensor_type;location;lat;lon;timestamp;P1;durP1;ratioP1;P2;durP2;ratioP2
7887;SDS011;3989;48.810;9.208;2023-04-06T04:16:39;15.90;;;11.63;;
7887;SDS011;3989;48.810;9.208;2023-04-06T07:55:11;13.17;;;8.80;;
7887;SDS011;3989;48.810;9.208;2023-04-06T07:57:39;10.10;;;8.30;;
7887;SDS011;3989;48.810;9.208;2023-04-06T08:00:38;9.97;;;8.40;;
7887;SDS011;3989;48.810;9.208;2023-04-06T08:03:06;12.13;;;8.87;;
7887;SDS011;3989;48.810;9.208;2023-04-06T08:05:33;9.53;;;8.23;;
7887;SDS011;3989;48.810;9.208;2023-04-06T08:08:01;13.27;;;9.33;;
7887;SDS011;3989;48.810;9.208;2023-04-06T08:10:28;10.53;;;9.30;;
7887;SDS011;3989;48.810;9.208;2023-04-06T08:12:55;15.47;;;8.83;;
7887;SDS011;3989;48.810;9.208;2023-04-06T08:15:21;9.43;;;8.17;;
7887;SDS011;3989;48.810;9.208;2023-04-06T08:17:48;11.60;;;9.00;;
7887;SDS011;3989;48.810;9.208;2023-04-06T08:20:15;11.93;;;9.20;;
7887;SDS011;3989;48.810;9.208;2023-04-06T08:22:42;9.30;;;8.40;;
7887;SDS011;3989;48.810;9.208;2023-04-06T08:25:10;10.90;;;8.40;;
7887;SDS011;3989;48.810;9.208;2023-04-06T08:27:36;13.87;;;9.10;;
7887;SDS011;3989;48.810;9.208;2023-04-06T08:30:03;10.73;;;8.87;;
7887;SDS011;3989;48.810;9.208;2023-04-06T08:32:31;9.23;;;8.27;;
7887;SDS011;3989;48.810;9.208;2023-04-06T08:34:57;10.00;;;8.57;;
7887;SDS011;3989;48.810;9.208;2023-04-06T08:37:25;10.97;;;8.10;;
7887;SDS011;3989;48.810;9.208;2023-04-06T08:39:52;12.57;;;9.00;;
7887;SDS011;3989;48.810;9.208;2023-04-06T08:42:21;9.93;;;8.43;;
7887;SDS011;3989;48.810;9.208;2023-04-06T08:44:51;11.83;;;9.13;;
7887;SDS011;3989;48.810;9.208;2023-04-06T08:47:18;10.93;;;8.50;;
7887;SDS011;3989;48.810;9.208;2023-04-06T08:49:45;10.47;;;8.37;;
7887;SDS011;3989;48.810;9.208;2023-04-06T08:52:12;10.77;;;8.60;;
7887;SDS011;3989;48.810;9.208;2023-04-06T08:54:41;10.43;;;8.40;;
7887;SDS011;3989;48.810;9.208;2023-04-06T08:57:08;10.37;;;8.30;;
7887;SDS011;3989;48.810;9.208;2023-04-06T08:59:37;14.63;;;8.77;;
7887;SDS011;3989;48.810;9.208;2023-04-06T09:02:05;11.27;;;8.00;;
7887;SDS011;3989;48.810;9.208;2023-04-06T09:04:37;8.50;;;7.70;;
7887;SDS011;3989;48.810;9.208;2023-04-06T09:07:04;9.63;;;7.60;;
7887;SDS011;3989;48.810;9.208;2023-04-06T09:09:31;8.40;;;7.53;;
7887;SDS011;3989;48.810;9.208;2023-04-06T09:11:58;9.40;;;7.53;;
7887;SDS011;3989;48.810;9.208;2023-04-06T09:14:34;10.87;;;9.10;;
7887;SDS011;3989;48.810;9.208;2023-04-06T09:17:03;8.43;;;7.63;;
7887;SDS011;3989;48.810;9.208;2023-04-06T09:19:31;7.93;;;7.23;;
7887;SDS011;3989;48.810;9.208;2023-04-06T09:22:01;9.70;;;7.30;;
7887;SDS011;3989;48.810;9.208;2023-04-06T09:24:39;8.10;;;7.30;;
7887;SDS011;3989;48.810;9.208;2023-04-06T09:27:06;7.70;;;6.87;;
7887;SDS011;3989;48.810;9.208;2023-04-06T09:29:32;8.77;;;7.87;;
7887;SDS011;3989;48.810;9.208;2023-04-06T09:32:02;8.80;;;7.67;;
7887;SDS011;3989;48.810;9.208;2023-04-06T09:34:31;8.00;;;7.20;;
7887;SDS011;3989;48.810;9.208;2023-04-06T09:36:58;8.77;;;7.03;;
7887;SDS011;3989;48.810;9.208;2023-04-06T09:39:25;7.67;;;6.90;;
7887;SDS011;3989;48.810;9.208;2023-04-06T09:41:52;8.07;;;6.50;;
7887;SDS011;3989;48.810;9.208;2023-04-06T09:44:20;8.67;;;7.10;;
7887;SDS011;3989;48.810;9.208;2023-04-06T09:46:49;7.67;;;6.60;;
7887;SDS011;3989;48.810;9.208;2023-04-06T09:49:17;7.53;;;6.70;;
7887;SDS011;3989;48.810;9.208;2023-04-06T09:51:45;6.60;;;5.67;;
7887;SDS011;3989;48.810;9.208;2023-04-06T09:54:15;5.20;;;4.80;;
7887;SDS011;3989;48.810;9.208;2023-04-06T09:56:45;6.50;;;5.73;;
7887;SDS011;3989;48.810;9.208;2023-04-06T09:59:14;7.70;;;6.00;;
7887;SDS011;3989;48.810;9.208;2023-04-06T10:01:46;5.10;;;4.70;;
7887;SDS011;3989;48.810;9.208;2023-04-06T10:04:21;4.70;;;4.30;;
7887;SDS011;3989;48.810;9.208;2023-04-06T10:06:59;6.33;;;5.77;;
7887;SDS011;3989;48.810;9.208;2023-04-06T10:09:28;6.50;;;5.80;;
7887;SDS011;3989;48.810;9.208;2023-04-06T10:12:01;6.80;;;5.70;;
7887;SDS011;3989;48.810;9.208;2023-04-06T10:14:29;10.07;;;6.50;;
7887;SDS011;3989;48.810;9.208;2023-04-06T10:16:57;7.60;;;6.83;;
7887;SDS011;3989;48.810;9.208;2023-04-06T10:19:26;6.63;;;5.97;;
7887;SDS011;3989;48.810;9.208;2023-04-06T10:21:58;7.50;;;6.33;;
7887;SDS011;3989;48.810;9.208;2023-04-06T10:24:29;9.13;;;7.00;;
7887;SDS011;3989;48.810;9.208;2023-04-06T10:26:58;6.17;;;5.63;;
7887;SDS011;3989;48.810;9.208;2023-04-06T10:29:27;7.10;;;6.40;;
7887;SDS011;3989;48.810;9.208;2023-04-06T10:31:53;8.23;;;6.20;;
7887;SDS011;3989;48.810;9.208;2023-04-06T10:34:21;7.10;;;6.40;;
7887;SDS011;3989;48.810;9.208;2023-04-06T10:36:49;6.70;;;6.10;;
7887;SDS011;3989;48.810;9.208;2023-04-06T10:39:16;6.30;;;5.77;;
7887;SDS011;3989;48.810;9.208;2023-04-06T10:41:50;6.20;;;5.70;;
7887;SDS011;3989;48.810;9.208;2023-04-06T10:44:17;6.90;;;6.30;;
7887;SDS011;3989;48.810;9.208;2023-04-06T10:46:52;8.23;;;5.97;;
7887;SDS011;3989;48.810;9.208;2023-04-06T10:49:19;6.27;;;5.67;;
7887;SDS011;3989;48.810;9.208;2023-04-06T10:51:52;6.10;;;5.47;;
7887;SDS011;3989;48.810;9.208;2023-04-06T10:54:20;6.53;;;5.93;;
7887;SDS011;3989;48.810;9.208;2023-04-06T10:56:48;7.70;;;5.87;;
7887;SDS011;3989;48.810;9.208;2023-04-06T10:59:18;6.00;;;5.50;;
7887;SDS011;3989;48.810;9.208;2023-04-06T11:01:45;8.67;;;5.70;;
7887;SDS011;3989;48.810;9.208;2023-04-06T11:04:12;6.33;;;5.27;;
7887;SDS011;3989;48.810;9.208;2023-04-06T11:06:45;5.60;;;5.10;;
7887;SDS011;3989;48.810;9.208;2023-04-06T11:09:22;5.67;;;5.13;;
7887;SDS011;3989;48.810;9.208;2023-04-06T11:11:50;5.90;;;5.30;;
7887;SDS011;3989;48.810;9.208;2023-04-06T11:14:17;5.50;;;5.10;;
7887;SDS011;3989;48.810;9.208;2023-04-06T11:16:45;7.37;;;5.00;;
7887;SDS011;3989;48.810;9.208;2023-04-06T11:19:13;5.93;;;5.43;;
7887;SDS011;3989;48.810;9.208;2023-04-06T11:21:41;5.23;;;4.83;;
7887;SDS011;3989;48.810;9.208;2023-04-06T11:24:12;5.47;;;5.00;;
7887;SDS011;3989;48.810;9.208;2023-04-06T11:26:42;5.30;;;4.90;;
7887;SDS011;3989;48.810;9.208;2023-04-06T11:29:10;5.60;;;5.17;;
7887;SDS011;3989;48.810;9.208;2023-04-06T11:31:38;6.50;;;5.00;;
7887;SDS011;3989;48.810;9.208;2023-04-06T11:34:10;5.70;;;5.23;;
7887;SDS011;3989;48.810;9.208;2023-04-06T11:36:39;5.47;;;4.97;;
7887;SDS011;3989;48.810;9.208;2023-04-06T11:39:07;5.97;;;5.47;;
7887;SDS011;3989;48.810;9.208;2023-04-06T11:41:34;5.40;;;5.00;;
7887;SDS011;3989;48.810;9.208;2023-04-06T11:44:03;6.00;;;5.40;;
7887;SDS011;3989;48.810;9.208;2023-04-06T11:46:31;6.17;;;5.67;;
7887;SDS011;3989;48.810;9.208;2023-04-06T11:48:58;5.47;;;5.00;;
7887;SDS011;3989;48.810;9.208;2023-04-06T11:51:26;5.83;;;5.27;;
7887;SDS011;3989;48.810;9.208;2023-04-06T11:53:52;5.63;;;4.63;;
7887;SDS011;3989;48.810;9.208;2023-04-06T11:56:26;4.90;;;4.60;;
7887;SDS011;3989;48.810;9.208;2023-04-06T11:58:54;4.90;;;4.33;;
7887;SDS011;3989;48.810;9.208;2023-04-06T12:01:24;5.33;;;4.90;;
7887;SDS011;3989;48.810;9.208;2023-04-06T12:03:51;5.43;;;4.97;;
7887;SDS011;3989;48.810;9.208;2023-04-06T12:06:18;6.10;;;5.50;;
7887;SDS011;3989;48.810;9.208;2023-04-06T12:08:45;6.30;;;5.70;;
7887;SDS011;3989;48.810;9.208;2023-04-06T12:11:12;6.37;;;5.70;;
7887;SDS011;3989;48.810;9.208;2023-04-06T12:13:38;6.00;;;5.50;;
7887;SDS011;3989;48.810;9.208;2023-04-06T12:16:05;5.37;;;4.97;;
7887;SDS011;3989;48.810;9.208;2023-04-06T12:18:33;5.37;;;4.87;;
7887;SDS011;3989;48.810;9.208;2023-04-06T12:21:00;6.90;;;4.90;;
7887;SDS011;3989;48.810;9.208;2023-04-06T12:23:27;5.90;;;5.40;;
7887;SDS011;3989;48.810;9.208;2023-04-06T12:25:53;6.40;;;5.47;;
7887;SDS011;3989;48.810;9.208;2023-04-06T12:28:20;6.10;;;5.50;;
7887;SDS011;3989;48.810;9.208;2023-04-06T12:30:48;6.00;;;5.43;;
7887;SDS011;3989;48.810;9.208;2023-04-06T12:33:15;5.43;;;5.00;;
7887;SDS011;3989;48.810;9.208;2023-04-06T12:35:43;5.70;;;5.20;;
7887;SDS011;3989;48.810;9.208;2023-04-06T12:38:09;6.10;;;5.47;;
7887;SDS011;3989;48.810;9.208;2023-04-06T12:40:36;5.63;;;5.20;;
7887;SDS011;3989;48.810;9.208;2023-04-06T12:43:04;5.47;;;4.97;;
7887;SDS011;3989;48.810;9.208;2023-04-06T12:45:30;6.07;;;5.17;;
7887;SDS011;3989;48.810;9.208;2023-04-06T12:47:57;5.33;;;4.83;;
7887;SDS011;3989;48.810;9.208;2023-04-06T12:50:24;5.87;;;4.97;;
7887;SDS011;3989;48.810;9.208;2023-04-06T12:52:52;5.43;;;4.93;;
7887;SDS011;3989;48.810;9.208;2023-04-06T12:55:19;5.40;;;4.80;;
7887;SDS011;3989;48.810;9.208;2023-04-06T12:57:46;4.87;;;4.57;;
7887;SDS011;3989;48.810;9.208;2023-04-06T13:00:13;5.10;;;4.70;;
7887;SDS011;3989;48.810;9.208;2023-04-06T13:02:40;5.73;;;5.17;;
7887;SDS011;3989;48.810;9.208;2023-04-06T13:05:11;5.17;;;4.63;;
7887;SDS011;3989;48.810;9.208;2023-04-06T13:07:38;5.57;;;5.10;;
7887;SDS011;3989;48.810;9.208;2023-04-06T13:10:07;4.57;;;4.27;;
7887;SDS011;3989;48.810;9.208;2023-04-06T13:12:34;5.93;;;5.50;;
7887;SDS011;3989;48.810;9.208;2023-04-06T13:15:01;5.20;;;4.80;;
7887;SDS011;3989;48.810;9.208;2023-04-06T13:17:28;5.90;;;5.40;;
7887;SDS011;3989;48.810;9.208;2023-04-06T13:19:54;5.13;;;4.80;;
7887;SDS011;3989;48.810;9.208;2023-04-06T13:22:21;5.87;;;5.27;;
7887;SDS011;3989;48.810;9.208;2023-04-06T13:24:48;6.13;;;5.63;;
7887;SDS011;3989;48.810;9.208;2023-04-06T13:27:16;5.27;;;4.83;;
7887;SDS011;3989;48.810;9.208;2023-04-06T13:29:42;5.07;;;4.67;;
7887;SDS011;3989;48.810;9.208;2023-04-06T13:32:09;5.90;;;5.17;;
7887;SDS011;3989;48.810;9.208;2023-04-06T13:34:35;7.23;;;5.27;;
7887;SDS011;3989;48.810;9.208;2023-04-06T13:37:02;6.27;;;5.67;;
7887;SDS011;3989;48.810;9.208;2023-04-06T13:39:29;6.20;;;5.70;;
7887;SDS011;3989;48.810;9.208;2023-04-06T13:41:55;6.30;;;5.80;;
7887;SDS011;3989;48.810;9.208;2023-04-06T13:44:23;6.33;;;5.73;;
7887;SDS011;3989;48.810;9.208;2023-04-06T13:46:51;5.43;;;5.03;;
7887;SDS011;3989;48.810;9.208;2023-04-06T13:49:18;6.13;;;5.53;;
7887;SDS011;3989;48.810;9.208;2023-04-06T13:51:45;5.87;;;5.37;;
7887;SDS011;3989;48.810;9.208;2023-04-06T13:54:11;5.53;;;5.07;;
7887;SDS011;3989;48.810;9.208;2023-04-06T13:56:38;5.70;;;5.30;;
7887;SDS011;3989;48.810;9.208;2023-04-06T13:59:04;7.03;;;5.23;;
7887;SDS011;3989;48.810;9.208;2023-04-06T14:01:32;5.50;;;5.10;;
7887;SDS011;3989;48.810;9.208;2023-04-06T14:03:59;5.80;;;5.30;;
7887;SDS011;3989;48.810;9.208;2023-04-06T14:06:25;5.70;;;5.20;;
7887;SDS011;3989;48.810;9.208;2023-04-06T14:08:52;5.70;;;5.20;;
7887;SDS011;3989;48.810;9.208;2023-04-06T14:11:19;5.17;;;4.87;;
7887;SDS011;3989;48.810;9.208;2023-04-06T14:13:45;5.63;;;5.13;;
7887;SDS011;3989;48.810;9.208;2023-04-06T14:16:12;5.63;;;4.87;;
7887;SDS011;3989;48.810;9.208;2023-04-06T14:18:39;5.70;;;5.20;;
7887;SDS011;3989;48.810;9.208;2023-04-06T14:21:07;5.93;;;5.33;;
7887;SDS011;3989;48.810;9.208;2023-04-06T14:23:34;6.20;;;5.53;;
7887;SDS011;3989;48.810;9.208;2023-04-06T14:26:01;6.13;;;5.37;;
7887;SDS011;3989;48.810;9.208;2023-04-06T14:28:29;5.33;;;4.83;;
7887;SDS011;3989;48.810;9.208;2023-04-06T14:30:55;5.13;;;4.73;;
7887;SDS011;3989;48.810;9.208;2023-04-06T14:33:23;4.77;;;4.27;;
7887;SDS011;3989;48.810;9.208;2023-04-06T14:35:51;4.80;;;4.50;;
7887;SDS011;3989;48.810;9.208;2023-04-06T14:38:17;5.00;;;4.57;;
7887;SDS011;3989;48.810;9.208;2023-04-06T14:40:44;4.97;;;4.57;;
7887;SDS011;3989;48.810;9.208;2023-04-06T14:43:10;5.55;;;5.05;;
7887;SDS011;3989;48.810;9.208;2023-04-06T14:45:37;4.95;;;4.50;;
7887;SDS011;3989;48.810;9.208;2023-04-06T14:48:04;5.80;;;5.05;;
7887;SDS011;3989;48.810;9.208;2023-04-06T14:50:31;5.70;;;5.22;;
7887;SDS011;3989;48.810;9.208;2023-04-06T14:53:00;4.97;;;4.40;;
7887;SDS011;3989;48.810;9.208;2023-04-06T14:55:27;7.20;;;5.00;;
7887;SDS011;3989;48.810;9.208;2023-04-06T14:57:53;5.85;;;5.30;;
7887;SDS011;3989;48.810;9.208;2023-04-06T15:00:20;5.65;;;5.05;;
7887;SDS011;3989;48.810;9.208;2023-04-06T15:02:47;5.25;;;4.78;;
7887;SDS011;3989;48.810;9.208;2023-04-06T15:05:13;5.95;;;5.07;;
7887;SDS011;3989;48.810;9.208;2023-04-06T15:07:45;5.57;;;5.07;;
7887;SDS011;3989;48.810;9.208;2023-04-06T15:10:26;4.90;;;4.50;;
7887;SDS011;3989;48.810;9.208;2023-04-06T15:12:55;5.50;;;5.00;;
7887;SDS011;3989;48.810;9.208;2023-04-06T15:15:21;6.22;;;5.32;;
7887;SDS011;3989;48.810;9.208;2023-04-06T15:17:48;4.77;;;4.17;;
7887;SDS011;3989;48.810;9.208;2023-04-06T15:20:15;5.13;;;4.72;;
7887;SDS011;3989;48.810;9.208;2023-04-06T15:22:41;5.00;;;4.60;;
7887;SDS011;3989;48.810;9.208;2023-04-06T15:25:08;5.85;;;5.35;;
7887;SDS011;3989;48.810;9.208;2023-04-06T15:27:36;4.57;;;4.28;;
7887;SDS011;3989;48.810;9.208;2023-04-06T15:30:04;5.22;;;4.68;;
7887;SDS011;3989;48.810;9.208;2023-04-06T15:32:36;4.82;;;4.45;;
7887;SDS011;3989;48.810;9.208;2023-04-06T15:35:08;6.05;;;5.47;;
7887;SDS011;3989;48.810;9.208;2023-04-06T15:37:36;5.47;;;4.97;;
7887;SDS011;3989;48.810;9.208;2023-04-06T15:40:03;6.95;;;5.25;;
7887;SDS011;3989;48.810;9.208;2023-04-06T15:42:31;7.40;;;5.93;;
7887;SDS011;3989;48.810;9.208;2023-04-06T15:45:01;4.90;;;4.47;;
7887;SDS011;3989;48.810;9.208;2023-04-06T15:47:28;5.20;;;4.70;;
7887;SDS011;3989;48.810;9.208;2023-04-06T15:49:54;5.20;;;4.70;;
7887;SDS011;3989;48.810;9.208;2023-04-06T15:52:22;4.83;;;4.40;;
7887;SDS011;3989;48.810;9.208;2023-04-06T15:54:48;5.23;;;4.73;;
7887;SDS011;3989;48.810;9.208;2023-04-06T15:57:15;5.30;;;4.80;;
7887;SDS011;3989;48.810;9.208;2023-04-06T15:59:41;7.10;;;4.80;;
7887;SDS011;3989;48.810;9.208;2023-04-06T16:02:10;6.33;;;5.07;;
7887;SDS011;3989;48.810;9.208;2023-04-06T16:04:37;5.60;;;5.10;;
7887;SDS011;3989;48.810;9.208;2023-04-06T16:07:03;5.53;;;4.70;;
7887;SDS011;3989;48.810;9.208;2023-04-06T16:09:30;5.13;;;4.63;;
7887;SDS011;3989;48.810;9.208;2023-04-06T16:11:56;5.97;;;5.17;;
7887;SDS011;3989;48.810;9.208;2023-04-06T16:14:23;7.37;;;5.10;;
7887;SDS011;3989;48.810;9.208;2023-04-06T16:16:50;6.27;;;4.77;;
7887;SDS011;3989;48.810;9.208;2023-04-06T16:19:18;5.60;;;4.93;;
7887;SDS011;3989;48.810;9.208;2023-04-06T16:21:44;5.10;;;4.63;;
7887;SDS011;3989;48.810;9.208;2023-04-06T16:24:11;5.80;;;5.13;;
7887;SDS011;3989;48.810;9.208;2023-04-06T16:26:38;5.27;;;4.83;;
7887;SDS011;3989;48.810;9.208;2023-04-06T16:29:05;7.03;;;5.40;;
7887;SDS011;3989;48.810;9.208;2023-04-06T16:31:33;5.07;;;4.67;;
7887;SDS011;3989;48.810;9.208;2023-04-06T16:34:00;6.53;;;5.50;;
7887;SDS011;3989;48.810;9.208;2023-04-06T16:36:29;5.93;;;5.40;;
7887;SDS011;3989;48.810;9.208;2023-04-06T16:38:58;5.53;;;4.70;;
7887;SDS011;3989;48.810;9.208;2023-04-06T16:41:25;5.50;;;5.00;;
7887;SDS011;3989;48.810;9.208;2023-04-06T16:43:53;5.33;;;4.93;;
7887;SDS011;3989;48.810;9.208;2023-04-06T16:46:29;6.43;;;5.57;;
7887;SDS011;3989;48.810;9.208;2023-04-06T16:48:56;6.60;;;5.93;;
7887;SDS011;3989;48.810;9.208;2023-04-06T16:51:23;6.10;;;5.60;;
7887;SDS011;3989;48.810;9.208;2023-04-06T16:53:52;7.40;;;6.50;;
7887;SDS011;3989;48.810;9.208;2023-04-06T16:56:22;7.67;;;6.90;;
7887;SDS011;3989;48.810;9.208;2023-04-06T16:58:57;10.40;;;6.07;;
7887;SDS011;3989;48.810;9.208;2023-04-06T17:01:26;7.87;;;7.00;;
7887;SDS011;3989;48.810;9.208;2023-04-06T17:03:54;9.27;;;6.63;;
7887;SDS011;3989;48.810;9.208;2023-04-06T17:06:21;7.17;;;6.53;;
7887;SDS011;3989;48.810;9.208;2023-04-06T17:08:48;7.17;;;6.40;;
7887;SDS011;3989;48.810;9.208;2023-04-06T17:11:16;6.43;;;5.77;;
7887;SDS011;3989;48.810;9.208;2023-04-06T17:13:43;6.50;;;5.90;;
7887;SDS011;3989;48.810;9.208;2023-04-06T17:16:10;6.30;;;5.60;;
7887;SDS011;3989;48.810;9.208;2023-04-06T17:18:37;5.43;;;4.97;;
7887;SDS011;3989;48.810;9.208;2023-04-06T17:21:04;5.97;;;4.70;;
7887;SDS011;3989;48.810;9.208;2023-04-06T17:23:32;4.83;;;4.30;;
7887;SDS011;3989;48.810;9.208;2023-04-06T17:26:01;4.67;;;4.20;;
7887;SDS011;3989;48.810;9.208;2023-04-06T17:28:30;4.70;;;4.10;;
7887;SDS011;3989;48.810;9.208;2023-04-06T17:30:57;4.33;;;3.90;;
7887;SDS011;3989;48.810;9.208;2023-04-06T17:33:23;4.67;;;4.27;;
7887;SDS011;3989;48.810;9.208;2023-04-06T17:35:50;4.10;;;3.77;;
7887;SDS011;3989;48.810;9.208;2023-04-06T17:38:17;4.40;;;3.97;;
7887;SDS011;3989;48.810;9.208;2023-04-06T17:40:44;4.50;;;4.00;;
7887;SDS011;3989;48.810;9.208;2023-04-06T17:43:10;4.87;;;4.10;;
7887;SDS011;3989;48.810;9.208;2023-04-06T17:45:38;4.40;;;4.00;;
7887;SDS011;3989;48.810;9.208;2023-04-06T17:48:05;4.10;;;3.53;;
7887;SDS011;3989;48.810;9.208;2023-04-06T17:50:32;4.10;;;3.70;;
7887;SDS011;3989;48.810;9.208;2023-04-06T17:53:02;4.07;;;3.67;;
7887;SDS011;3989;48.810;9.208;2023-04-06T17:55:29;4.23;;;3.80;;
7887;SDS011;3989;48.810;9.208;2023-04-06T17:57:56;5.57;;;3.97;;
7887;SDS011;3989;48.810;9.208;2023-04-06T18:00:22;4.63;;;3.90;;
7887;SDS011;3989;48.810;9.208;2023-04-06T18:02:51;5.97;;;4.20;;
7887;SDS011;3989;48.810;9.208;2023-04-06T18:05:18;4.30;;;3.90;;
7887;SDS011;3989;48.810;9.208;2023-04-06T18:07:44;5.17;;;4.27;;
7887;SDS011;3989;48.810;9.208;2023-04-06T18:10:11;5.27;;;4.23;;
7887;SDS011;3989;48.810;9.208;2023-04-06T18:12:37;5.43;;;4.10;;
7887;SDS011;3989;48.810;9.208;2023-04-06T18:15:04;4.63;;;4.23;;
7887;SDS011;3989;48.810;9.208;2023-04-06T18:17:32;4.00;;;3.70;;
7887;SDS011;3989;48.810;9.208;2023-04-06T18:20:01;5.37;;;4.27;;
7887;SDS011;3989;48.810;9.208;2023-04-06T18:22:28;4.13;;;3.83;;
7887;SDS011;3989;48.810;9.208;2023-04-06T18:24:54;5.47;;;4.63;;
7887;SDS011;3989;48.810;9.208;2023-04-06T18:27:23;4.17;;;3.87;;
7887;SDS011;3989;48.810;9.208;2023-04-06T18:29:49;5.00;;;4.50;;
7887;SDS011;3989;48.810;9.208;2023-04-06T18:32:17;5.17;;;4.77;;
7887;SDS011;3989;48.810;9.208;2023-04-06T18:34:43;4.63;;;4.23;;
7887;SDS011;3989;48.810;9.208;2023-04-06T18:37:11;4.57;;;4.17;;
7887;SDS011;3989;48.810;9.208;2023-04-06T18:39:38;4.20;;;3.80;;
7887;SDS011;3989;48.810;9.208;2023-04-06T18:42:05;4.23;;;3.83;;
7887;SDS011;3989;48.810;9.208;2023-04-06T18:44:31;3.90;;;3.47;;
7887;SDS011;3989;48.810;9.208;2023-04-06T18:46:58;5.33;;;4.80;;
7887;SDS011;3989;48.810;9.208;2023-04-06T18:49:25;4.23;;;3.87;;
7887;SDS011;3989;48.810;9.208;2023-04-06T18:51:51;4.30;;;3.70;;
7887;SDS011;3989;48.810;9.208;2023-04-06T18:54:21;4.43;;;3.63;;
7887;SDS011;3989;48.810;9.208;2023-04-06T18:56:47;3.80;;;3.07;;
7887;SDS011;3989;48.810;9.208;2023-04-06T18:59:14;3.50;;;3.20;;
7887;SDS011;3989;48.810;9.208;2023-04-06T19:01:41;3.57;;;3.10;;
7887;SDS011;3989;48.810;9.208;2023-04-06T19:04:10;4.20;;;3.90;;
7887;SDS011;3989;48.810;9.208;2023-04-06T19:06:37;5.57;;;4.30;;
7887;SDS011;3989;48.810;9.208;2023-04-06T19:09:03;4.93;;;3.80;;
7887;SDS011;3989;48.810;9.208;2023-04-06T19:11:31;3.90;;;3.47;;
7887;SDS011;3989;48.810;9.208;2023-04-06T19:13:58;4.67;;;4.13;;
7887;SDS011;3989;48.810;9.208;2023-04-06T19:16:25;5.00;;;3.73;;
7887;SDS011;3989;48.810;9.208;2023-04-06T19:18:53;3.50;;;3.23;;
7887;SDS011;3989;48.810;9.208;2023-04-06T19:21:20;4.07;;;3.47;;
7887;SDS011;3989;48.810;9.208;2023-04-06T19:23:48;3.90;;;3.03;;
7887;SDS011;3989;48.810;9.208;2023-04-06T19:26:16;3.53;;;3.23;;
7887;SDS011;3989;48.810;9.208;2023-04-06T19:28:45;3.67;;;3.30;;
7887;SDS011;3989;48.810;9.208;2023-04-06T19:31:13;3.17;;;2.97;;
7887;SDS011;3989;48.810;9.208;2023-04-06T19:33:41;4.13;;;3.73;;
7887;SDS011;3989;48.810;9.208;2023-04-06T19:36:08;4.93;;;3.43;;
7887;SDS011;3989;48.810;9.208;2023-04-06T19:38:35;5.47;;;4.03;;
7887;SDS011;3989;48.810;9.208;2023-04-06T19:41:02;3.60;;;3.30;;
7887;SDS011;3989;48.810;9.208;2023-04-06T19:43:29;6.90;;;3.10;;
7887;SDS011;3989;48.810;9.208;2023-04-06T19:45:57;3.33;;;3.03;;
7887;SDS011;3989;48.810;9.208;2023-04-06T19:48:24;3.10;;;2.90;;
7887;SDS011;3989;48.810;9.208;2023-04-06T19:50:51;3.50;;;2.70;;
7887;SDS011;3989;48.810;9.208;2023-04-06T19:53:18;3.23;;;2.93;;
7887;SDS011;3989;48.810;9.208;2023-04-06T19:55:45;4.17;;;2.80;;
7887;SDS011;3989;48.810;9.208;2023-04-06T19:58:12;2.80;;;2.70;;
7887;SDS011;3989;48.810;9.208;2023-04-06T20:00:39;3.03;;;2.77;;
7887;SDS011;3989;48.810;9.208;2023-04-06T20:03:07;3.10;;;2.90;;
7887;SDS011;3989;48.810;9.208;2023-04-06T20:05:35;2.33;;;2.20;;
7887;SDS011;3989;48.810;9.208;2023-04-06T20:08:01;3.07;;;2.10;;
7887;SDS011;3989;48.810;9.208;2023-04-06T20:10:28;1.87;;;1.77;;
7887;SDS011;3989;48.810;9.208;2023-04-06T20:12:55;2.30;;;2.00;;
7887;SDS011;3989;48.810;9.208;2023-04-06T20:15:21;1.87;;;1.57;;
7887;SDS011;3989;48.810;9.208;2023-04-06T20:17:48;1.70;;;1.60;;
7887;SDS011;3989;48.810;9.208;2023-04-06T20:20:16;2.43;;;1.50;;
7887;SDS011;3989;48.810;9.208;2023-04-06T20:22:42;1.60;;;1.50;;
7887;SDS011;3989;48.810;9.208;2023-04-06T20:25:10;1.87;;;1.70;;
7887;SDS011;3989;48.810;9.208;2023-04-06T20:27:36;1.70;;;1.60;;
7887;SDS011;3989;48.810;9.208;2023-04-06T20:30:03;2.10;;;1.93;;
7887;SDS011;3989;48.810;9.208;2023-04-06T20:32:31;1.90;;;1.80;;
7887;SDS011;3989;48.810;9.208;2023-04-06T20:34:57;2.23;;;2.13;;
7887;SDS011;3989;48.810;9.208;2023-04-06T20:37:25;2.57;;;2.40;;
7887;SDS011;3989;48.810;9.208;2023-04-06T20:39:52;2.57;;;2.37;;
7887;SDS011;3989;48.810;9.208;2023-04-06T20:42:18;2.40;;;2.20;;
7887;SDS011;3989;48.810;9.208;2023-04-06T20:44:47;2.80;;;2.63;;
7887;SDS011;3989;48.810;9.208;2023-04-06T20:47:14;4.70;;;2.60;;
7887;SDS011;3989;48.810;9.208;2023-04-06T20:49:41;2.83;;;2.57;;
7887;SDS011;3989;48.810;9.208;2023-04-06T20:52:08;2.87;;;2.67;;
7887;SDS011;3989;48.810;9.208;2023-04-06T20:54:36;2.80;;;2.30;;
7887;SDS011;3989;48.810;9.208;2023-04-06T20:57:14;2.73;;;2.50;;
7887;SDS011;3989;48.810;9.208;2023-04-06T20:59:41;3.37;;;3.07;;
7887;SDS011;3989;48.810;9.208;2023-04-06T21:02:09;4.13;;;3.07;;
7887;SDS011;3989;48.810;9.208;2023-04-06T21:04:35;3.13;;;2.93;;
7887;SDS011;3989;48.810;9.208;2023-04-06T21:07:02;3.03;;;2.83;;
7887;SDS011;3989;48.810;9.208;2023-04-06T21:09:30;4.33;;;2.87;;
7887;SDS011;3989;48.810;9.208;2023-04-06T21:12:01;3.63;;;3.33;;
7887;SDS011;3989;48.810;9.208;2023-04-06T21:14:51;3.90;;;3.60;;
7887;SDS011;3989;48.810;9.208;2023-04-06T21:17:25;3.63;;;3.33;;
7887;SDS011;3989;48.810;9.208;2023-04-06T21:20:00;2.73;;;2.53;;
7887;SDS011;3989;48.810;9.208;2023-04-06T21:22:30;3.80;;;3.53;;
7887;SDS011;3989;48.810;9.208;2023-04-06T21:25:01;3.97;;;3.67;;
7887;SDS011;3989;48.810;9.208;2023-04-06T21:27:31;3.93;;;3.60;;
7887;SDS011;3989;48.810;9.208;2023-04-06T21:30:04;3.60;;;3.30;;
7887;SDS011;3989;48.810;9.208;2023-04-06T21:32:38;3.80;;;3.50;;
7887;SDS011;3989;48.810;9.208;2023-04-06T21:35:15;4.30;;;3.90;;
7887;SDS011;3989;48.810;9.208;2023-04-06T21:37:47;3.57;;;3.33;;
7887;SDS011;3989;48.810;9.208;2023-04-06T21:40:20;4.80;;;3.77;;
7887;SDS011;3989;48.810;9.208;2023-04-06T21:42:52;4.13;;;3.90;;
7887;SDS011;3989;48.810;9.208;2023-04-06T21:45:23;4.23;;;3.93;;
7887;SDS011;3989;48.810;9.208;2023-04-06T21:47:53;4.23;;;3.93;;
7887;SDS011;3989;48.810;9.208;2023-04-06T21:50:36;4.87;;;3.73;;
7887;SDS011;3989;48.810;9.208;2023-04-06T21:53:16;5.10;;;4.70;;
7887;SDS011;3989;48.810;9.208;2023-04-06T21:58:51;4.77;;;4.37;;
7887;SDS011;3989;48.810;9.208;2023-04-06T22:01:32;4.87;;;4.43;;
7887;SDS011;3989;48.810;9.208;2023-04-06T22:04:07;5.47;;;4.70;;
7887;SDS011;3989;48.810;9.208;2023-04-06T22:07:12;5.10;;;4.70;;
7887;SDS011;3989;48.810;9.208;2023-04-06T22:09:38;5.93;;;5.43;;
7887;SDS011;3989;48.810;9.208;2023-04-06T22:12:05;6.00;;;5.50;;
7887;SDS011;3989;48.810;9.208;2023-04-06T22:14:33;6.93;;;5.63;;
7887;SDS011;3989;48.810;9.208;2023-04-06T22:17:01;6.23;;;5.47;;
7887;SDS011;3989;48.810;9.208;2023-04-06T22:19:27;5.73;;;5.23;;
7887;SDS011;3989;48.810;9.208;2023-04-06T22:21:54;6.63;;;6.03;;
7887;SDS011;3989;48.810;9.208;2023-04-06T22:24:21;9.07;;;6.47;;
7887;SDS011;3989;48.810;9.208;2023-04-06T22:26:48;8.37;;;6.40;;
7887;SDS011;3989;48.810;9.208;2023-04-06T22:29:15;6.87;;;6.17;;
7887;SDS011;3989;48.810;9.208;2023-04-06T22:31:44;7.57;;;6.87;;
7887;SDS011;3989;48.810;9.208;2023-04-06T22:34:11;7.17;;;6.50;;
7887;SDS011;3989;48.810;9.208;2023-04-06T22:36:38;6.93;;;6.27;;
7887;SDS011;3989;48.810;9.208;2023-04-06T22:39:19;8.63;;;7.10;;
7887;SDS011;3989;48.810;9.208;2023-04-06T22:42:01;10.03;;;8.00;;
7887;SDS011;3989;48.810;9.208;2023-04-06T22:47:28;8.90;;;6.97;;
7887;SDS011;3989;48.810;9.208;2023-04-06T22:50:06;8.00;;;7.30;;
7887;SDS011;3989;48.810;9.208;2023-04-06T22:52:39;8.50;;;7.03;;
7887;SDS011;3989;48.810;9.208;2023-04-06T22:56:05;9.67;;;6.90;;
7887;SDS011;3989;48.810;9.208;2023-04-06T23:18:53;8.23;;;7.43;;
7887;SDS011;3989;48.810;9.208;2023-04-06T23:21:20;8.47;;;7.67;;
7887;SDS011;3989;48.810;9.208;2023-04-06T23:23:50;8.70;;;7.60;;
7887;SDS011;3989;48.810;9.208;2023-04-06T23:26:17;8.37;;;7.57;;
7887;SDS011;3989;48.810;9.208;2023-04-06T23:28:57;7.97;;;7.17;;
7887;SDS011;3989;48.810;9.208;2023-04-06T23:31:27;9.03;;;7.33;;
7887;SDS011;3989;48.810;9.208;2023-04-06T23:34:02;8.17;;;7.13;;
7887;SDS011;3989;48.810;9.208;2023-04-06T23:36:30;8.47;;;7.13;;
7887;SDS011;3989;48.810;9.208;2023-04-06T23:38:58;7.30;;;6.47;;
7887;SDS011;3989;48.810;9.208;2023-04-06T23:41:32;7.27;;;6.57;;